Aérodrome :
LOGIN :

S'inscrire | Disclaimer

   EN    FR    IT 

 










Légende :    VFR   VFR Marginal   IFR   IFR Intensif   IFR Très Intensif
Visi : 
Plafond : 
>= 8 km
>= 3000ft
5 à 8 km
1000 à 3000 ft
1500m à 5 km
500 à 1000 ft
800 à 1500m
200 à 500 ft
< 800m
< 200 ft
Symboles :   Orages  Brouillard  Fortes neiges  Fortes précipitations  Vent > 20 kt
SIGMETs :   Divers  Orages  Givrage  Turbulence  Onde Orograph.  Cendres Volcan.







- Altitude de l'aérodrome : 0 ft
- Code IATA : QFR


LIRH - Frosinone Military

DERNIER METAR :
  • 261755Z 10006KT 9999 SCT040 12/03 Q1012

METARs EXPIRÉS :
  • 261655Z 09008KT 9999 SCT040 14/03 Q1012 RMK SCT MON LIB NC VIS MIN 9999 WIND THR16 /////KT BLU

TAF TAF LIRH
Valide du 26 à 15h jusqu'au 27 à 00h UTC


261400Z 2615/2624 13012KT 9999 SCT025 SCT035
PROB30
TEMPO 2615/2617 13015G25KT 4000 SHRA FEW020CB BKN025
Pas de NOTAMs connus pour ce terrain.
3 SIGMETs publiés pour la FIR Roma (LIRR) :
 
Orages noyés dans la masse
LIRR SIGMET 12 VALID 261730/262030 LIIB
LIRR ROMA FIR EMBD TS OBS WI N3825 E00922 - N3922 E01607 - N4106 E01510 - N4128 E01418 - N4216 E01334 - N4157 E00949 - N4121 E00947 - N4119 E00821 - N4106 E00801 - N3901 E00801 - N3825 E00922 TOP FL270 STNR NC=
Turbulence forte
LIRR SIGMET 11 VALID 261730/262030 LIIB
LIRR ROMA FIR SEV TURB FCST WI N3910 E00945 - N3909 E01056 - N4041 E01056 - N4047 E00942 - N3910 E00945 SFC/FL040 MOV S NC=
Turbulence forte
LIRR SIGMET 10 VALID 261730/262030 LIIB
LIRR ROMA FIR SEV TURB FCST WI N4056 E00949 - N4219 E01333 - N4300 E01301 - N4331 E01313 - N4340 E01110 - N4334 E01022 - N4309 E00946 - N4056 E00949 FL015/080 STNR NC=



MET'MAP, la Météo Aéronautique d'un coup d'oeil ! - Copyright ORBIFLY Décembre 2007 - Disclaimer

ORBIFLY MET'MAP TEAM :

Programmation & Développement : Alexandra Zaïnal
Conception & Développement : Baudouin d'Aumeries
Co-Programmation & Développement : Marc-Olivier Méhu
Soutien technique & logistique : Manuel Goepfert

Contact : metmap@orbifly.com




SOURCES & CREDITS :

   NOAA